Cabo, Brazil
Current Conditions -  °F | °C
As of 3:00 PM on Friday 28 Nov 2014 (Local Time) from SBRF Reporting Station
Rain Showers Rain Showers  
Wind Chill: 82°   Ceiling: Unl
Heat Index: 88°   Visibility: 5mi
Dew Point: 73°   Wind: 7mph
Humidity: 74%   Direction: 110°ESE
Pressure: 29.88"   Gusts: NA
Location:  8.26°S, 35.01°W
Report Text: SBRF 281800Z 11006KT 8000 VCSH SCT020 SCT070 28/23 Q1012
Loading
Personal Weather Stations






























Interactive Weather Map New forecast layout! Learn more

10-Day Weather Forecast

Advertisements
Track Severe Weather on mobile